Time;durP1;ratioP1;P1;durP2;ratioP2;P2;SDS_P1;SDS_P2;PMS_P1;PMS_P2;Temp;Humidity;BMP_temperature;BMP_pressure;BME280_temperature;BME280_humidity;BME280_pressure;Samples;Min_cycle;Max_cycle;Signal;HPM_P1;HPM_P2
2022/12/02 00:02:14;;;;;;;19.00;7.63;;;;;;;;;;8292851;28;20096;-89
2022/12/02 00:06:26;;;;;;;20.77;9.43;;;;;;;;;;8295443;28;20124;-90
2022/12/02 00:10:32;;;;;;;22.20;11.52;;;;;;;;;;8299417;28;20413;-89
2022/12/02 00:14:36;;;;;;;22.23;8.25;;;;;;;;;;8296256;28;20129;-90
2022/12/02 00:18:39;;;;;;;18.88;8.35;;;;;;;;;;8295975;28;20045;-88
2022/12/02 00:22:42;;;;;;;13.95;7.78;;;;;;;;;;8291687;28;20069;-90
2022/12/02 00:26:45;;;;;;;25.88;9.88;;;;;;;;;;8291080;28;20391;-91
2022/12/02 00:30:49;;;;;;;15.52;4.93;;;;;;;;;;8293946;28;20117;-94
2022/12/02 00:34:51;;;;;;;14.50;7.13;;;;;;;;;;8293931;28;20486;-89
2022/12/02 00:38:55;;;;;;;17.15;7.25;;;;;;;;;;8293661;28;20049;-85
2022/12/02 00:46:30;;;;;;;6.60;3.55;;;;;;;;;;8299132;28;20049;-91
2022/12/02 00:47:21;;;;;;;16.92;6.97;;;;;;;;;;8298468;28;20521;-91
2022/12/02 00:51:24;;;;;;;22.00;8.90;;;;;;;;;;8298497;28;20063;-90
2022/12/02 00:55:27;;;;;;;20.35;9.50;;;;;;;;;;8280985;28;20053;-91
2022/12/02 00:59:29;;;;;;;17.05;7.68;;;;;;;;;;8298589;28;20049;-86
2022/12/02 01:03:33;;;;;;;19.25;8.40;;;;;;;;;;8295824;28;20095;-91
2022/12/02 01:07:36;;;;;;;17.77;7.30;;;;;;;;;;8286086;28;20039;-86
2022/12/02 01:11:39;;;;;;;14.88;6.78;;;;;;;;;;8295847;28;20118;-90
2022/12/02 01:15:41;;;;;;;16.15;8.00;;;;;;;;;;8295830;28;20084;-90
2022/12/02 01:19:46;;;;;;;15.95;7.60;;;;;;;;;;8299212;28;20120;-90
2022/12/02 01:23:48;;;;;;;11.57;6.25;;;;;;;;;;8298787;28;20437;-87
2022/12/02 01:27:51;;;;;;;14.00;5.90;;;;;;;;;;8303243;28;20054;-90
2022/12/02 01:31:54;;;;;;;18.42;7.70;;;;;;;;;;8309607;28;20112;-88
2022/12/02 01:35:58;;;;;;;16.38;7.68;;;;;;;;;;8297385;28;20045;-87
2022/12/02 01:40:01;;;;;;;12.65;6.93;;;;;;;;;;8297261;28;20056;-90
2022/12/02 01:44:04;;;;;;;15.75;8.25;;;;;;;;;;8297364;28;20068;-89
2022/12/02 01:48:07;;;;;;;18.25;7.68;;;;;;;;;;8297620;28;20486;-91
2022/12/02 01:52:11;;;;;;;16.83;7.95;;;;;;;;;;8301516;28;20058;-92
2022/12/02 01:56:13;;;;;;;9.32;4.82;;;;;;;;;;8301739;28;20046;-89
2022/12/02 02:00:16;;;;;;;16.65;6.75;;;;;;;;;;8282792;28;20104;-89
2022/12/02 02:04:19;;;;;;;21.05;8.82;;;;;;;;;;8297645;28;20049;-90
2022/12/02 02:08:23;;;;;;;23.13;8.57;;;;;;;;;;8290226;28;20049;-90
2022/12/02 02:12:27;;;;;;;22.50;8.73;;;;;;;;;;8303971;28;20077;-90
2022/12/02 02:16:30;;;;;;;14.98;5.97;;;;;;;;;;8289861;28;20050;-91
2022/12/02 02:20:33;;;;;;;19.67;7.60;;;;;;;;;;8303794;28;20124;-90
2022/12/02 02:24:37;;;;;;;17.05;8.70;;;;;;;;;;8303222;28;20045;-90
2022/12/02 02:28:40;;;;;;;16.70;6.60;;;;;;;;;;8303108;28;20145;-86
2022/12/02 02:32:43;;;;;;;13.82;7.80;;;;;;;;;;8303028;28;20042;-89
2022/12/02 02:36:46;;;;;;;12.38;6.32;;;;;;;;;;8302083;28;20375;-89
2022/12/02 02:40:50;;;;;;;17.85;7.70;;;;;;;;;;8302604;28;20043;-87
2022/12/02 02:44:53;;;;;;;18.02;7.85;;;;;;;;;;8302273;28;20044;-88
2022/12/02 02:48:55;;;;;;;15.25;7.40;;;;;;;;;;8302449;28;20053;-86
2022/12/02 02:53:00;;;;;;;14.40;7.78;;;;;;;;;;8301639;28;20386;-91
2022/12/02 02:57:04;;;;;;;16.25;7.47;;;;;;;;;;8302319;28;20560;-90
2022/12/02 03:01:11;;;;;;;17.48;7.97;;;;;;;;;;8299536;28;20050;-90
2022/12/02 03:05:14;;;;;;;12.35;6.28;;;;;;;;;;8301653;28;20057;-90
2022/12/02 03:09:20;;;;;;;11.57;5.53;;;;;;;;;;8301582;28;20496;-88
2022/12/02 03:13:25;;;;;;;20.55;8.43;;;;;;;;;;8302451;28;20543;-89
2022/12/02 03:17:28;;;;;;;18.40;7.13;;;;;;;;;;8302132;28;20046;-88
2022/12/02 03:21:32;;;;;;;21.98;8.88;;;;;;;;;;8301534;28;20046;-91
2022/12/02 03:25:35;;;;;;;15.98;7.47;;;;;;;;;;8301507;28;20052;-91
2022/12/02 03:29:39;;;;;;;6.90;3.80;;;;;;;;;;8287521;28;20104;-90
2022/12/02 03:33:43;;;;;;;16.75;7.57;;;;;;;;;;8301166;28;20056;-88
2022/12/02 03:37:45;;;;;;;13.98;6.95;;;;;;;;;;8301746;28;20046;-90
2022/12/02 03:41:48;;;;;;;20.48;7.38;;;;;;;;;;8300917;28;20128;-90
2022/12/02 03:45:52;;;;;;;15.88;6.03;;;;;;;;;;8301158;28;20045;-87
2022/12/02 03:49:55;;;;;;;11.50;6.20;;;;;;;;;;8300255;28;20049;-88
2022/12/02 03:53:58;;;;;;;18.75;8.77;;;;;;;;;;8292970;28;20585;-90
2022/12/02 03:58:04;;;;;;;79.18;24.88;;;;;;;;;;8295700;28;20437;-92
2022/12/02 04:02:08;;;;;;;16.80;7.95;;;;;;;;;;8299897;28;20071;-89
2022/12/02 04:06:11;;;;;;;16.40;7.88;;;;;;;;;;8276106;28;20046;-90
2022/12/02 04:10:13;;;;;;;20.20;7.68;;;;;;;;;;8292666;28;20046;-89
2022/12/02 04:14:16;;;;;;;16.35;7.55;;;;;;;;;;8299247;28;20405;-88
2022/12/02 04:18:20;;;;;;;11.20;5.47;;;;;;;;;;8273047;28;20041;-88
2022/12/02 04:22:22;;;;;;;15.50;6.35;;;;;;;;;;8293022;28;20049;-89
2022/12/02 04:26:25;;;;;;;8.80;3.95;;;;;;;;;;8298776;28;20080;-86
2022/12/02 04:30:28;;;;;;;12.70;5.97;;;;;;;;;;8295973;28;20053;-87
2022/12/02 04:34:32;;;;;;;13.30;5.88;;;;;;;;;;8291215;28;20069;-88
2022/12/02 04:38:35;;;;;;;6.95;3.70;;;;;;;;;;8298577;28;20045;-89
2022/12/02 04:42:38;;;;;;;7.97;3.90;;;;;;;;;;8297508;28;21335;-88
2022/12/02 04:46:41;;;;;;;13.65;5.75;;;;;;;;;;8299871;28;20513;-87
2022/12/02 04:50:45;;;;;;;9.88;4.30;;;;;;;;;;8294482;28;20502;-85
2022/12/02 04:54:47;;;;;;;11.13;5.00;;;;;;;;;;8298096;28;20046;-88
2022/12/02 04:58:50;;;;;;;14.25;5.00;;;;;;;;;;8297246;28;20482;-88
2022/12/02 05:02:53;;;;;;;8.25;4.82;;;;;;;;;;8291830;28;20401;-85
2022/12/02 05:06:56;;;;;;;10.05;4.53;;;;;;;;;;8283982;28;20081;-86
2022/12/02 05:10:59;;;;;;;10.65;4.75;;;;;;;;;;8287774;28;20053;-87
2022/12/02 05:15:02;;;;;;;3.50;2.42;;;;;;;;;;8291997;28;20054;-91
2022/12/02 05:19:04;;;;;;;7.47;4.53;;;;;;;;;;8296367;28;20050;-89
2022/12/02 05:23:08;;;;;;;13.45;5.55;;;;;;;;;;8298524;28;20132;-90
2022/12/02 05:27:11;;;;;;;6.95;3.42;;;;;;;;;;8297463;28;20060;-89
2022/12/02 05:31:13;;;;;;;45.30;18.45;;;;;;;;;;8297590;28;20125;-84
2022/12/02 05:35:16;;;;;;;56.60;25.52;;;;;;;;;;8297143;28;20046;-91
2022/12/02 05:39:21;;;;;;;10.48;4.28;;;;;;;;;;8285555;28;20037;-89
2022/12/02 05:43:25;;;;;;;15.20;7.50;;;;;;;;;;8297235;28;20046;-92
2022/12/02 05:47:30;;;;;;;19.77;9.07;;;;;;;;;;8297216;28;20141;-88
2022/12/02 05:51:32;;;;;;;8.30;5.32;;;;;;;;;;8293183;28;20192;-89
2022/12/02 05:55:36;;;;;;;9.38;4.43;;;;;;;;;;8286730;28;20042;-88
2022/12/02 05:59:39;;;;;;;187.07;55.58;;;;;;;;;;8293315;28;20034;-88
2022/12/02 06:03:41;;;;;;;306.83;94.78;;;;;;;;;;8292337;28;20046;-90
2022/12/02 06:07:44;;;;;;;28.65;11.02;;;;;;;;;;8297510;28;20485;-87
2022/12/02 06:11:49;;;;;;;51.78;13.23;;;;;;;;;;8279764;28;20490;-91
2022/12/02 06:15:52;;;;;;;10.93;6.25;;;;;;;;;;8278823;28;20050;-87
2022/12/02 06:19:56;;;;;;;25.55;10.18;;;;;;;;;;8290358;28;20398;-88
2022/12/02 06:24:01;;;;;;;52.88;13.30;;;;;;;;;;8297710;28;20049;-90
2022/12/02 06:28:17;;;;;;;27.23;12.00;;;;;;;;;;8297009;28;20054;-89
2022/12/02 06:32:22;;;;;;;20.00;6.80;;;;;;;;;;8297832;28;20046;-90
2022/12/02 06:36:27;;;;;;;15.13;6.63;;;;;;;;;;8298248;28;20061;-90
2022/12/02 06:40:31;;;;;;;9.52;4.55;;;;;;;;;;8302438;28;20477;-91
2022/12/02 06:48:57;;;;;;;34.00;11.45;;;;;;;;;;8286640;28;20037;-86
2022/12/02 06:53:25;;;;;;;17.23;9.35;;;;;;;;;;8293639;28;20065;-91
2022/12/02 06:57:30;;;;;;;12.48;6.68;;;;;;;;;;8276249;28;20054;-90
2022/12/02 07:01:40;;;;;;;13.55;7.10;;;;;;;;;;8277957;28;20406;-85
2022/12/02 07:05:59;;;;;;;17.65;7.00;;;;;;;;;;8279114;28;20071;-89
2022/12/02 07:10:05;;;;;;;8.55;5.22;;;;;;;;;;8290662;28;20070;-89
2022/12/02 07:14:13;;;;;;;11.23;4.78;;;;;;;;;;8294721;28;20045;-83
2022/12/02 07:18:22;;;;;;;23.25;10.40;;;;;;;;;;8295059;28;20390;-87
2022/12/02 07:22:31;;;;;;;23.33;9.00;;;;;;;;;;8286405;28;20466;-90
2022/12/02 07:26:41;;;;;;;19.02;9.20;;;;;;;;;;8289532;28;20096;-89
2022/12/02 07:30:46;;;;;;;11.90;6.00;;;;;;;;;;8293262;28;20048;-85
2022/12/02 07:34:50;;;;;;;15.52;6.80;;;;;;;;;;8284315;28;20050;-87
2022/12/02 07:38:53;;;;;;;30.15;10.60;;;;;;;;;;8270462;28;20058;-89
2022/12/02 07:42:55;;;;;;;18.67;6.97;;;;;;;;;;8290504;28;20422;-84
2022/12/02 07:46:58;;;;;;;20.50;8.90;;;;;;;;;;8290424;28;20054;-84
2022/12/02 07:51:05;;;;;;;17.73;9.40;;;;;;;;;;8302327;28;20042;-87
2022/12/02 07:59:54;;;;;;;18.35;8.30;;;;;;;;;;8275857;28;20073;-88
2022/12/02 08:03:59;;;;;;;22.77;10.38;;;;;;;;;;8311134;28;20487;-91
2022/12/02 08:08:26;;;;;;;22.05;10.85;;;;;;;;;;8298559;28;20045;-92
2022/12/02 08:12:35;;;;;;;19.33;8.82;;;;;;;;;;8287857;28;20145;-95
2022/12/02 08:16:49;;;;;;;14.50;6.40;;;;;;;;;;8310213;28;20049;-94
2022/12/02 08:21:26;;;;;;;20.70;10.73;;;;;;;;;;8319963;28;20054;-95
2022/12/02 08:25:33;;;;;;;25.02;10.85;;;;;;;;;;8306005;28;20080;-90
2022/12/02 08:29:55;;;;;;;18.58;10.07;;;;;;;;;;8293309;28;20050;-93
2022/12/02 08:38:23;;;;;;;23.08;11.38;;;;;;;;;;8288755;28;20121;-92
2022/12/02 08:42:41;;;;;;;14.90;7.70;;;;;;;;;;8293176;28;20104;-94
2022/12/02 08:46:53;;;;;;;31.45;15.52;;;;;;;;;;8288136;28;20046;-93
2022/12/02 08:51:07;;;;;;;30.70;12.57;;;;;;;;;;8290284;28;20112;-94
2022/12/02 08:55:19;;;;;;;22.25;9.45;;;;;;;;;;8283344;28;20050;-93
2022/12/02 08:59:40;;;;;;;31.13;11.70;;;;;;;;;;8277581;28;20617;-92
2022/12/02 09:08:09;;;;;;;26.73;10.73;;;;;;;;;;8275126;28;20049;-88
2022/12/02 09:12:20;;;;;;;18.60;7.70;;;;;;;;;;8291603;28;20049;-91
2022/12/02 09:16:33;;;;;;;21.35;9.60;;;;;;;;;;8277763;28;20042;-90
2022/12/02 09:20:42;;;;;;;23.33;8.93;;;;;;;;;;8257758;28;20046;-89
2022/12/02 09:24:50;;;;;;;5.47;3.42;;;;;;;;;;8274008;28;20101;-84
2022/12/02 09:29:04;;;;;;;26.27;9.32;;;;;;;;;;8286673;28;20073;-86
2022/12/02 09:33:14;;;;;;;18.60;9.65;;;;;;;;;;8268017;28;20552;-83
2022/12/02 09:37:17;;;;;;;22.17;10.88;;;;;;;;;;8284461;28;20051;-86
2022/12/02 09:41:35;;;;;;;31.00;9.68;;;;;;;;;;8281292;28;20038;-89
2022/12/02 09:45:43;;;;;;;23.30;11.27;;;;;;;;;;8285424;28;20057;-90
2022/12/02 09:49:55;;;;;;;30.35;14.43;;;;;;;;;;8280589;28;20549;-86
2022/12/02 09:54:10;;;;;;;8.15;4.45;;;;;;;;;;8281380;28;20046;-88
2022/12/02 09:58:18;;;;;;;24.75;10.48;;;;;;;;;;8285328;28;20054;-87
2022/12/02 10:02:25;;;;;;;25.63;12.00;;;;;;;;;;8283100;28;20108;-81
2022/12/02 10:06:29;;;;;;;38.53;16.40;;;;;;;;;;8288392;28;20053;-83
2022/12/02 10:10:37;;;;;;;45.42;19.30;;;;;;;;;;8295241;28;20049;-83
2022/12/02 10:14:39;;;;;;;19.90;9.00;;;;;;;;;;8280785;28;20473;-90
2022/12/02 10:18:43;;;;;;;34.58;13.02;;;;;;;;;;8293864;28;20171;-85
2022/12/02 10:23:10;;;;;;;34.40;13.27;;;;;;;;;;8293766;28;20125;-84
2022/12/02 10:27:25;;;;;;;54.28;23.02;;;;;;;;;;8285841;28;20062;-88
2022/12/02 10:31:29;;;;;;;10.65;6.05;;;;;;;;;;8294058;28;20049;-84
2022/12/02 10:35:44;;;;;;;30.27;11.82;;;;;;;;;;8300410;28;20457;-88
2022/12/02 10:39:48;;;;;;;31.58;13.15;;;;;;;;;;8297526;28;20042;-88
2022/12/02 10:44:06;;;;;;;27.85;11.50;;;;;;;;;;8285155;28;20038;-85
2022/12/02 10:48:16;;;;;;;32.40;13.40;;;;;;;;;;8292458;28;20046;-86
2022/12/02 10:52:22;;;;;;;30.27;11.65;;;;;;;;;;8290091;28;20053;-84
2022/12/02 10:56:26;;;;;;;27.13;13.73;;;;;;;;;;8298488;28;20041;-86
2022/12/02 11:00:29;;;;;;;31.45;14.18;;;;;;;;;;8286437;28;20057;-85
2022/12/02 11:04:31;;;;;;;36.58;16.13;;;;;;;;;;8288235;28;20386;-92
2022/12/02 11:08:34;;;;;;;20.58;9.77;;;;;;;;;;8290225;28;20050;-91
2022/12/02 11:12:59;;;;;;;60.85;29.13;;;;;;;;;;8291639;28;20050;-92
2022/12/02 11:17:07;;;;;;;44.55;19.42;;;;;;;;;;8291247;28;20050;-92
2022/12/02 11:21:35;;;;;;;38.55;15.25;;;;;;;;;;8302105;28;20049;-88
2022/12/02 11:26:01;;;;;;;41.30;18.77;;;;;;;;;;8301666;28;20046;-88
2022/12/02 11:30:39;;;;;;;44.45;19.10;;;;;;;;;;8301953;28;20058;-90
2022/12/02 11:34:49;;;;;;;42.47;15.80;;;;;;;;;;8297802;28;20054;-93
2022/12/02 11:39:01;;;;;;;40.28;18.05;;;;;;;;;;8298816;28;20049;-88
2022/12/02 11:43:34;;;;;;;30.85;14.73;;;;;;;;;;8301547;28;20418;-91
2022/12/02 11:47:36;;;;;;;69.68;21.02;;;;;;;;;;8268359;28;20050;-90
2022/12/02 11:51:41;;;;;;;42.13;19.10;;;;;;;;;;8296853;28;20064;-88
2022/12/02 11:55:46;;;;;;;90.38;27.88;;;;;;;;;;8296415;28;20045;-88
2022/12/02 11:59:50;;;;;;;29.15;11.38;;;;;;;;;;8296366;28;20038;-87
2022/12/02 12:03:53;;;;;;;154.70;36.47;;;;;;;;;;8295571;28;20046;-86
2022/12/02 12:07:57;;;;;;;129.32;36.35;;;;;;;;;;8287600;28;20054;-84
2022/12/02 12:12:14;;;;;;;34.75;14.50;;;;;;;;;;8294604;28;20061;-88
2022/12/02 12:16:22;;;;;;;105.47;39.08;;;;;;;;;;8293178;28;20041;-87
2022/12/02 12:20:46;;;;;;;123.90;47.13;;;;;;;;;;8293945;28;20138;-87
2022/12/02 12:24:50;;;;;;;45.50;18.65;;;;;;;;;;8290331;28;20136;-88
2022/12/02 12:28:52;;;;;;;30.85;14.10;;;;;;;;;;8297743;28;20065;-90
2022/12/02 12:32:55;;;;;;;70.90;27.20;;;;;;;;;;8290560;28;20046;-84
2022/12/02 12:36:59;;;;;;;40.97;17.77;;;;;;;;;;8281215;28;20505;-83
2022/12/02 12:41:04;;;;;;;27.42;12.52;;;;;;;;;;8275602;28;20038;-85
2022/12/02 12:45:08;;;;;;;36.97;16.35;;;;;;;;;;8276112;28;20104;-82
2022/12/02 12:49:13;;;;;;;78.60;31.17;;;;;;;;;;8279387;28;20132;-86
2022/12/02 12:53:16;;;;;;;36.25;14.57;;;;;;;;;;8292554;28;20053;-88
2022/12/02 12:57:21;;;;;;;51.22;23.63;;;;;;;;;;8297545;28;20132;-90
2022/12/02 13:01:26;;;;;;;32.65;16.10;;;;;;;;;;8295269;28;20064;-94
2022/12/02 13:05:49;;;;;;;52.92;22.67;;;;;;;;;;8280076;28;20088;-95
2022/12/02 13:10:18;;;;;;;33.85;11.85;;;;;;;;;;8293040;28;20038;-96
2022/12/02 13:14:41;;;;;;;22.33;11.07;;;;;;;;;;8274251;28;20050;-86
2022/12/02 13:18:50;;;;;;;43.15;19.13;;;;;;;;;;8286798;28;20074;-96
2022/12/02 13:22:54;;;;;;;25.63;10.30;;;;;;;;;;8300686;28;20053;-95
2022/12/02 13:27:11;;;;;;;48.60;17.35;;;;;;;;;;8290470;28;20858;-93
2022/12/02 13:31:24;;;;;;;16.60;8.07;;;;;;;;;;8295076;28;20050;-95
2022/12/02 13:35:26;;;;;;;18.13;8.43;;;;;;;;;;8285797;28;20482;-92
2022/12/02 13:39:36;;;;;;;40.00;17.02;;;;;;;;;;8274364;28;20045;-94
2022/12/02 13:43:40;;;;;;;33.08;13.98;;;;;;;;;;8280324;28;20046;-87
2022/12/02 13:47:49;;;;;;;33.97;15.77;;;;;;;;;;8287780;28;20052;-86
2022/12/02 13:52:06;;;;;;;27.92;14.32;;;;;;;;;;8295918;28;20046;-85
2022/12/02 13:56:24;;;;;;;30.20;14.10;;;;;;;;;;8289731;28;20046;-87
2022/12/02 14:00:49;;;;;;;39.75;18.55;;;;;;;;;;8255450;28;20058;-86
2022/12/02 14:05:04;;;;;;;17.02;8.07;;;;;;;;;;8276289;28;20029;-87
2022/12/02 14:09:10;;;;;;;23.92;9.80;;;;;;;;;;8296740;28;20046;-86
2022/12/02 14:13:14;;;;;;;36.85;14.75;;;;;;;;;;8283232;28;20497;-83
2022/12/02 14:17:18;;;;;;;40.35;17.40;;;;;;;;;;8297130;28;20060;-85
2022/12/02 14:21:22;;;;;;;93.75;36.03;;;;;;;;;;8286856;28;20474;-86
2022/12/02 14:25:24;;;;;;;48.90;18.42;;;;;;;;;;8290571;28;20148;-86
2022/12/02 14:29:27;;;;;;;27.48;10.75;;;;;;;;;;8278710;28;20050;-87
2022/12/02 14:33:30;;;;;;;59.85;25.58;;;;;;;;;;8290652;28;20489;-92
2022/12/02 14:37:37;;;;;;;34.25;12.15;;;;;;;;;;8289305;28;20053;-88
2022/12/02 14:41:46;;;;;;;36.35;14.48;;;;;;;;;;8291594;28;20417;-89
2022/12/02 14:45:59;;;;;;;102.68;35.28;;;;;;;;;;8291546;28;20108;-89
2022/12/02 14:50:13;;;;;;;55.40;17.75;;;;;;;;;;8281463;28;20553;-88
2022/12/02 14:54:27;;;;;;;111.90;32.92;;;;;;;;;;8281587;28;20124;-94
2022/12/02 14:58:41;;;;;;;109.05;37.50;;;;;;;;;;8289032;28;20397;-88
2022/12/02 15:03:07;;;;;;;33.70;16.25;;;;;;;;;;8288071;28;20073;-88
2022/12/02 15:07:18;;;;;;;31.90;12.10;;;;;;;;;;8295372;28;20631;-90
2022/12/02 15:11:47;;;;;;;24.08;12.63;;;;;;;;;;8289490;28;20141;-87
2022/12/02 15:16:30;;;;;;;37.95;16.52;;;;;;;;;;8283754;28;20048;-87
2022/12/02 15:20:50;;;;;;;36.10;13.52;;;;;;;;;;8278819;28;20050;-87
2022/12/02 15:25:11;;;;;;;36.47;17.55;;;;;;;;;;8284619;28;20058;-88
2022/12/02 15:29:36;;;;;;;32.30;12.35;;;;;;;;;;8288515;28;20457;-88
2022/12/02 15:33:59;;;;;;;38.08;16.48;;;;;;;;;;8294817;28;20068;-88
2022/12/02 15:38:17;;;;;;;41.63;16.75;;;;;;;;;;8283459;28;20402;-87
2022/12/02 15:42:28;;;;;;;45.92;17.58;;;;;;;;;;8275797;28;20045;-87
2022/12/02 15:46:37;;;;;;;67.00;27.58;;;;;;;;;;8273419;28;20046;-84
2022/12/02 15:51:00;;;;;;;42.08;18.33;;;;;;;;;;8284076;28;20482;-81
2022/12/02 15:55:19;;;;;;;42.75;18.95;;;;;;;;;;8292061;28;20049;-84
2022/12/02 15:59:24;;;;;;;;;;;;;;;;;;8276453;28;20092;-82
2022/12/02 16:03:34;;;;;;;34.88;15.75;;;;;;;;;;8292422;28;19929;-89
2022/12/02 16:07:55;;;;;;;86.85;32.45;;;;;;;;;;8284841;28;20564;-88
2022/12/02 16:16:32;;;;;;;44.45;21.20;;;;;;;;;;8286436;28;20048;-87
2022/12/02 16:20:40;;;;;;;11.43;5.30;;;;;;;;;;8266937;28;20065;-86
2022/12/02 16:25:08;;;;;;;63.78;23.85;;;;;;;;;;8277729;28;20129;-87
2022/12/02 16:29:27;;;;;;;403.60;152.68;;;;;;;;;;8284597;28;20066;-86
2022/12/02 16:33:32;;;;;;;89.53;27.02;;;;;;;;;;8271143;28;20064;-87
2022/12/02 16:37:50;;;;;;;90.55;31.02;;;;;;;;;;8288692;28;20502;-85
2022/12/02 16:42:00;;;;;;;;;;;;;;;;;;8273802;28;20061;-86
2022/12/02 16:46:12;;;;;;;137.98;43.05;;;;;;;;;;8290723;28;20392;-88
2022/12/02 16:51:07;;;;;;;150.40;46.13;;;;;;;;;;8292539;28;20104;-87
2022/12/02 16:55:25;;;;;;;140.27;45.80;;;;;;;;;;8247068;28;20046;-87
2022/12/02 17:00:21;;;;;;;89.82;29.27;;;;;;;;;;8246527;28;20133;-88
2022/12/02 17:04:31;;;;;;;125.32;42.78;;;;;;;;;;8236639;28;20101;-87
2022/12/02 17:08:48;;;;;;;100.80;28.92;;;;;;;;;;8255142;28;20069;-85
2022/12/02 17:13:18;;;;;;;93.78;28.00;;;;;;;;;;8260138;28;20053;-86
2022/12/02 17:17:49;;;;;;;67.82;23.23;;;;;;;;;;8237752;28;20478;-86
2022/12/02 17:22:13;;;;;;;42.33;18.20;;;;;;;;;;8245848;28;20109;-87
2022/12/02 17:26:29;;;;;;;45.30;19.48;;;;;;;;;;8246740;28;20046;-85
2022/12/02 17:31:17;;;;;;;178.27;55.40;;;;;;;;;;8188045;28;20050;-87
2022/12/02 17:35:47;;;;;;;35.80;13.40;;;;;;;;;;8169186;29;20056;-86
2022/12/02 17:40:14;;;;;;;75.05;26.23;;;;;;;;;;8178724;29;20584;-84
2022/12/02 17:44:40;;;;;;;150.48;53.25;;;;;;;;;;8194577;29;20097;-87
2022/12/02 17:48:52;;;;;;;85.85;36.97;;;;;;;;;;8186041;29;20054;-84
2022/12/02 17:53:02;;;;;;;76.20;28.00;;;;;;;;;;8181439;29;20090;-86
2022/12/02 17:57:12;;;;;;;63.72;22.23;;;;;;;;;;8183704;28;20057;-83
2022/12/02 18:01:20;;;;;;;103.72;36.13;;;;;;;;;;8179171;29;20063;-87
2022/12/02 18:05:39;;;;;;;38.35;16.30;;;;;;;;;;8188907;28;20051;-85
2022/12/02 18:10:01;;;;;;;345.63;76.53;;;;;;;;;;8182536;29;20055;-87
2022/12/02 18:14:44;;;;;;;89.50;24.55;;;;;;;;;;8175137;29;20043;-87
2022/12/02 18:19:39;;;;;;;220.88;46.83;;;;;;;;;;8184506;29;20059;-87
2022/12/02 18:24:24;;;;;;;442.92;165.63;;;;;;;;;;8182498;29;20134;-85
2022/12/02 18:28:46;;;;;;;42.53;18.02;;;;;;;;;;8218036;28;20139;-87
2022/12/02 18:33:09;;;;;;;61.95;22.80;;;;;;;;;;8256711;28;20111;-87
2022/12/02 18:37:31;;;;;;;49.25;14.93;;;;;;;;;;8242357;28;20080;-88
2022/12/02 18:41:46;;;;;;;122.85;33.63;;;;;;;;;;8251471;28;20490;-88
2022/12/02 18:46:03;;;;;;;120.78;34.97;;;;;;;;;;8248107;28;20046;-86
2022/12/02 18:50:38;;;;;;;107.22;26.27;;;;;;;;;;8246040;28;20411;-88
2022/12/02 18:54:48;;;;;;;;;;;;;;;;;;8264035;28;20042;-87
2022/12/02 18:58:55;;;;;;;82.20;19.92;;;;;;;;;;8250694;28;19926;-86
2022/12/02 19:03:07;;;;;;;37.17;15.07;;;;;;;;;;8246527;28;20043;-88
2022/12/02 19:07:25;;;;;;;77.65;21.63;;;;;;;;;;8237438;28;20058;-86
2022/12/02 19:11:39;;;;;;;46.20;15.93;;;;;;;;;;8243644;28;20050;-87
2022/12/02 19:15:57;;;;;;;60.08;29.90;;;;;;;;;;8258432;28;20356;-86
2022/12/02 19:20:21;;;;;;;46.17;14.82;;;;;;;;;;8249835;28;20046;-88
2022/12/02 19:24:50;;;;;;;83.90;31.10;;;;;;;;;;8254332;28;20057;-84
2022/12/02 19:29:32;;;;;;;106.45;26.92;;;;;;;;;;8260476;28;20088;-87
2022/12/02 19:33:49;;;;;;;35.33;13.00;;;;;;;;;;8246490;28;20051;-85
2022/12/02 19:43:02;;;;;;;49.08;19.85;;;;;;;;;;8237144;28;20072;-88
2022/12/02 19:47:05;;;;;;;72.38;30.25;;;;;;;;;;8247665;28;20105;-87
2022/12/02 19:51:11;;;;;;;28.65;10.20;;;;;;;;;;8255877;28;20542;-86
2022/12/02 19:55:16;;;;;;;47.90;20.83;;;;;;;;;;8252543;28;20061;-87
2022/12/02 19:59:19;;;;;;;54.10;22.95;;;;;;;;;;8240281;28;20077;-86
2022/12/02 20:03:22;;;;;;;69.88;25.85;;;;;;;;;;8246684;28;20148;-88
2022/12/02 20:07:27;;;;;;;46.95;22.30;;;;;;;;;;8259644;28;20058;-84
2022/12/02 20:11:30;;;;;;;40.22;16.92;;;;;;;;;;8245732;28;20696;-85
2022/12/02 20:15:33;;;;;;;44.63;18.83;;;;;;;;;;8231465;28;20051;-84
2022/12/02 20:19:37;;;;;;;45.53;13.77;;;;;;;;;;8265230;28;20045;-86
2022/12/02 20:23:41;;;;;;;44.97;13.50;;;;;;;;;;8263713;28;20046;-86
2022/12/02 20:27:44;;;;;;;37.80;12.85;;;;;;;;;;8245074;28;20050;-87
2022/12/02 20:31:47;;;;;;;50.85;18.35;;;;;;;;;;8259676;28;20144;-85
2022/12/02 20:35:52;;;;;;;41.58;14.63;;;;;;;;;;8258434;28;20042;-86
2022/12/02 20:39:57;;;;;;;44.80;19.25;;;;;;;;;;8248364;28;20130;-83
2022/12/02 20:44:01;;;;;;;39.90;14.20;;;;;;;;;;8232923;28;20071;-85
2022/12/02 20:48:04;;;;;;;24.40;10.98;;;;;;;;;;8263430;28;20457;-86
2022/12/02 20:52:07;;;;;;;39.47;13.52;;;;;;;;;;8265241;28;20046;-83
2022/12/02 20:56:11;;;;;;;54.65;17.13;;;;;;;;;;8264653;28;20050;-84
2022/12/02 21:00:17;;;;;;;51.40;19.20;;;;;;;;;;8264946;28;20054;-85
2022/12/02 21:04:20;;;;;;;49.80;17.48;;;;;;;;;;8264730;28;20066;-82
2022/12/02 21:08:23;;;;;;;52.40;18.55;;;;;;;;;;8264589;28;20046;-86
2022/12/02 21:12:27;;;;;;;80.72;25.55;;;;;;;;;;8264576;28;20054;-83
2022/12/02 21:16:31;;;;;;;121.40;34.42;;;;;;;;;;8264481;28;20043;-85
2022/12/02 21:20:34;;;;;;;61.38;21.42;;;;;;;;;;8264425;28;20046;-86
2022/12/02 21:24:38;;;;;;;104.10;32.58;;;;;;;;;;8264460;28;20482;-84
2022/12/02 21:28:42;;;;;;;136.50;39.10;;;;;;;;;;8264113;28;20391;-83
2022/12/02 21:32:45;;;;;;;421.50;119.95;;;;;;;;;;8264222;28;20550;-86
2022/12/02 21:36:48;;;;;;;256.70;67.03;;;;;;;;;;8264151;28;20046;-86
2022/12/02 21:40:53;;;;;;;79.60;23.30;;;;;;;;;;8264142;28;20042;-84
2022/12/02 21:44:57;;;;;;;187.20;53.63;;;;;;;;;;8264057;28;20070;-83
2022/12/02 21:49:00;;;;;;;308.77;83.97;;;;;;;;;;8264000;28;20057;-84
2022/12/02 21:53:03;;;;;;;87.68;24.50;;;;;;;;;;8264058;28;20137;-84
2022/12/02 21:57:07;;;;;;;115.05;30.90;;;;;;;;;;8264002;28;20085;-86
2022/12/02 22:05:30;;;;;;;69.57;22.67;;;;;;;;;;8264042;28;20054;-82
2022/12/02 22:09:33;;;;;;;220.35;53.83;;;;;;;;;;8268375;28;20049;-86
2022/12/02 22:13:36;;;;;;;195.85;46.63;;;;;;;;;;8270050;28;20042;-85
2022/12/02 22:17:40;;;;;;;114.10;27.17;;;;;;;;;;8269915;28;20047;-83
2022/12/02 22:21:42;;;;;;;87.78;24.10;;;;;;;;;;8270181;28;20054;-84
2022/12/02 22:25:45;;;;;;;99.53;25.55;;;;;;;;;;8269660;28;20038;-86
2022/12/02 22:29:48;;;;;;;161.73;35.50;;;;;;;;;;8269357;28;20066;-82
2022/12/02 22:33:52;;;;;;;58.78;19.10;;;;;;;;;;8269318;28;20097;-82
2022/12/02 22:37:54;;;;;;;276.05;58.67;;;;;;;;;;8269181;28;20042;-83
2022/12/02 22:41:57;;;;;;;87.93;25.67;;;;;;;;;;8268959;28;20050;-88
2022/12/02 22:46:00;;;;;;;157.73;43.30;;;;;;;;;;8268935;28;20056;-83
2022/12/02 22:50:04;;;;;;;115.13;33.50;;;;;;;;;;8269272;28;20085;-81
2022/12/02 22:54:07;;;;;;;64.97;20.08;;;;;;;;;;8268664;28;20133;-81
2022/12/02 22:58:10;;;;;;;106.60;30.73;;;;;;;;;;8268596;28;20054;-87
2022/12/02 23:02:12;;;;;;;69.05;22.70;;;;;;;;;;8268394;28;20050;-87
2022/12/02 23:06:16;;;;;;;80.13;26.85;;;;;;;;;;8268295;28;20116;-86
2022/12/02 23:10:19;;;;;;;86.00;26.58;;;;;;;;;;8268257;28;20038;-86
2022/12/02 23:14:21;;;;;;;68.53;21.55;;;;;;;;;;8268182;28;20046;-87
2022/12/02 23:18:24;;;;;;;65.97;19.13;;;;;;;;;;8267713;28;20188;-88
2022/12/02 23:22:28;;;;;;;87.30;27.67;;;;;;;;;;8267823;28;20402;-83
2022/12/02 23:26:31;;;;;;;61.22;17.55;;;;;;;;;;8268300;28;20050;-82
2022/12/02 23:30:33;;;;;;;73.68;25.30;;;;;;;;;;8267250;28;20050;-87
2022/12/02 23:34:37;;;;;;;71.93;21.17;;;;;;;;;;8267512;28;20125;-84
2022/12/02 23:38:41;;;;;;;140.38;42.25;;;;;;;;;;8267429;28;20414;-85
2022/12/02 23:42:44;;;;;;;82.38;28.10;;;;;;;;;;8267358;28;20042;-85
2022/12/02 23:46:46;;;;;;;79.28;24.42;;;;;;;;;;8267641;28;20558;-87
2022/12/02 23:50:49;;;;;;;77.10;21.88;;;;;;;;;;8266889;28;20088;-86
2022/12/02 23:54:53;;;;;;;86.90;26.80;;;;;;;;;;8267449;28;20406;-83
2022/12/02 23:58:56;;;;;;;53.17;17.45;;;;;;;;;;8266302;28;20050;-86
